sensor_id;sensor_type;location;lat;lon;timestamp;pressure;altitude;pressure_sealevel;temperature;humidity
52735;BME280;38631;47.572;10.704;2023-03-04T00:01:53;92827.44;;;0.35;100.00
52735;BME280;38631;47.572;10.704;2023-03-04T00:04:18;92831.66;;;0.36;100.00
52735;BME280;38631;47.572;10.704;2023-03-04T00:06:43;92828.00;;;0.37;100.00
52735;BME280;38631;47.572;10.704;2023-03-04T00:09:09;92827.03;;;0.26;100.00
52735;BME280;38631;47.572;10.704;2023-03-04T00:11:35;92820.00;;;0.27;100.00
52735;BME280;38631;47.572;10.704;2023-03-04T00:14:00;92814.91;;;0.20;100.00
52735;BME280;38631;47.572;10.704;2023-03-04T00:16:26;92826.38;;;0.19;100.00
52735;BME280;38631;47.572;10.704;2023-03-04T00:18:55;92825.59;;;0.18;100.00
52735;BME280;38631;47.572;10.704;2023-03-04T00:21:21;92833.56;;;0.12;100.00
52735;BME280;38631;47.572;10.704;2023-03-04T00:23:47;92825.16;;;0.10;100.00
52735;BME280;38631;47.572;10.704;2023-03-04T00:26:13;92837.22;;;0.11;100.00
52735;BME280;38631;47.572;10.704;2023-03-04T00:28:39;92837.53;;;0.14;100.00
52735;BME280;38631;47.572;10.704;2023-03-04T00:31:05;92830.72;;;0.13;100.00
52735;BME280;38631;47.572;10.704;2023-03-04T00:33:31;92832.09;;;0.16;100.00
52735;BME280;38631;47.572;10.704;2023-03-04T00:35:56;92841.16;;;0.13;100.00
52735;BME280;38631;47.572;10.704;2023-03-04T00:38:22;92832.75;;;0.23;100.00
52735;BME280;38631;47.572;10.704;2023-03-04T00:40:47;92830.25;;;0.16;100.00
52735;BME280;38631;47.572;10.704;2023-03-04T00:43:13;92828.50;;;0.05;100.00
52735;BME280;38631;47.572;10.704;2023-03-04T00:45:38;92838.78;;;0.12;100.00
52735;BME280;38631;47.572;10.704;2023-03-04T00:48:03;92833.91;;;0.15;100.00
52735;BME280;38631;47.572;10.704;2023-03-04T00:50:29;92831.59;;;0.19;100.00
52735;BME280;38631;47.572;10.704;2023-03-04T00:52:54;92828.16;;;0.02;100.00
52735;BME280;38631;47.572;10.704;2023-03-04T00:55:19;92830.28;;;0.05;100.00
52735;BME280;38631;47.572;10.704;2023-03-04T00:57:45;92815.97;;;-0.22;100.00
52735;BME280;38631;47.572;10.704;2023-03-04T01:00:11;92812.53;;;-0.10;100.00
52735;BME280;38631;47.572;10.704;2023-03-04T01:02:36;92813.69;;;-0.18;100.00
52735;BME280;38631;47.572;10.704;2023-03-04T01:05:02;92815.56;;;-0.02;100.00
52735;BME280;38631;47.572;10.704;2023-03-04T01:07:28;92806.13;;;-0.03;100.00
52735;BME280;38631;47.572;10.704;2023-03-04T01:09:53;92813.00;;;-0.13;100.00
52735;BME280;38631;47.572;10.704;2023-03-04T01:12:18;92820.22;;;-0.04;100.00
52735;BME280;38631;47.572;10.704;2023-03-04T01:14:44;92819.47;;;-0.16;100.00
52735;BME280;38631;47.572;10.704;2023-03-04T01:17:09;92808.25;;;-0.16;100.00
52735;BME280;38631;47.572;10.704;2023-03-04T01:19:36;92809.69;;;-0.09;100.00
52735;BME280;38631;47.572;10.704;2023-03-04T01:22:01;92805.13;;;-0.02;100.00
52735;BME280;38631;47.572;10.704;2023-03-04T01:24:27;92791.34;;;-0.14;100.00
52735;BME280;38631;47.572;10.704;2023-03-04T01:26:54;92796.88;;;-0.10;100.00
52735;BME280;38631;47.572;10.704;2023-03-04T01:29:19;92786.13;;;-0.14;100.00
52735;BME280;38631;47.572;10.704;2023-03-04T01:31:44;92782.06;;;-0.22;100.00
52735;BME280;38631;47.572;10.704;2023-03-04T01:34:10;92790.94;;;-0.23;100.00
52735;BME280;38631;47.572;10.704;2023-03-04T01:36:35;92787.59;;;-0.18;100.00
52735;BME280;38631;47.572;10.704;2023-03-04T01:39:01;92776.09;;;-0.34;100.00
52735;BME280;38631;47.572;10.704;2023-03-04T01:41:26;92786.16;;;-0.26;100.00
52735;BME280;38631;47.572;10.704;2023-03-04T01:43:55;92785.94;;;-0.36;100.00
52735;BME280;38631;47.572;10.704;2023-03-04T01:46:21;92778.41;;;-0.49;100.00
52735;BME280;38631;47.572;10.704;2023-03-04T01:48:47;92779.16;;;-0.37;100.00
52735;BME280;38631;47.572;10.704;2023-03-04T01:51:15;92782.53;;;-0.25;100.00
52735;BME280;38631;47.572;10.704;2023-03-04T01:53:41;92771.44;;;-0.32;100.00
52735;BME280;38631;47.572;10.704;2023-03-04T01:56:22;92779.09;;;-0.25;100.00
52735;BME280;38631;47.572;10.704;2023-03-04T01:59:16;92772.09;;;-0.25;100.00
52735;BME280;38631;47.572;10.704;2023-03-04T02:01:44;92779.09;;;-0.25;100.00
52735;BME280;38631;47.572;10.704;2023-03-04T02:04:10;92766.78;;;-0.82;100.00
52735;BME280;38631;47.572;10.704;2023-03-04T02:06:38;92763.88;;;-0.97;100.00
52735;BME280;38631;47.572;10.704;2023-03-04T02:09:04;92772.41;;;-0.61;100.00
52735;BME280;38631;47.572;10.704;2023-03-04T02:11:30;92775.66;;;-0.42;100.00
52735;BME280;38631;47.572;10.704;2023-03-04T02:13:56;92774.63;;;-0.41;100.00
52735;BME280;38631;47.572;10.704;2023-03-04T02:16:21;92765.56;;;-0.39;100.00
52735;BME280;38631;47.572;10.704;2023-03-04T02:18:46;92776.69;;;-0.44;100.00
52735;BME280;38631;47.572;10.704;2023-03-04T02:21:38;92774.47;;;-0.75;100.00
52735;BME280;38631;47.572;10.704;2023-03-04T02:26:34;92764.19;;;-1.05;100.00
52735;BME280;38631;47.572;10.704;2023-03-04T02:29:01;92763.28;;;-1.11;100.00
52735;BME280;38631;47.572;10.704;2023-03-04T02:31:36;92774.63;;;-1.05;100.00
52735;BME280;38631;47.572;10.704;2023-03-04T02:34:10;92780.25;;;-0.73;100.00
52735;BME280;38631;47.572;10.704;2023-03-04T02:36:37;92777.22;;;-0.70;100.00
52735;BME280;38631;47.572;10.704;2023-03-04T02:39:09;92770.69;;;-0.56;100.00
52735;BME280;38631;47.572;10.704;2023-03-04T02:41:35;92761.09;;;-0.67;100.00
52735;BME280;38631;47.572;10.704;2023-03-04T02:44:00;92767.88;;;-0.54;100.00
52735;BME280;38631;47.572;10.704;2023-03-04T02:46:26;92768.66;;;-0.66;100.00
52735;BME280;38631;47.572;10.704;2023-03-04T02:48:51;92779.75;;;-0.47;100.00
52735;BME280;38631;47.572;10.704;2023-03-04T02:51:17;92776.78;;;-0.50;100.00
52735;BME280;38631;47.572;10.704;2023-03-04T02:53:42;92777.50;;;-0.55;100.00
52735;BME280;38631;47.572;10.704;2023-03-04T02:56:07;92781.72;;;-0.66;100.00
52735;BME280;38631;47.572;10.704;2023-03-04T02:58:33;92775.44;;;-0.53;100.00
52735;BME280;38631;47.572;10.704;2023-03-04T03:00:59;92775.00;;;-0.50;100.00
52735;BME280;38631;47.572;10.704;2023-03-04T03:03:24;92772.72;;;-0.46;100.00
52735;BME280;38631;47.572;10.704;2023-03-04T03:05:49;92772.50;;;-0.56;100.00
52735;BME280;38631;47.572;10.704;2023-03-04T03:08:15;92763.22;;;-0.52;100.00
52735;BME280;38631;47.572;10.704;2023-03-04T03:10:40;92769.63;;;-0.43;100.00
52735;BME280;38631;47.572;10.704;2023-03-04T03:13:06;92771.47;;;-0.55;100.00
52735;BME280;38631;47.572;10.704;2023-03-04T03:15:31;92769.31;;;-0.47;100.00
52735;BME280;38631;47.572;10.704;2023-03-04T03:17:57;92774.63;;;-0.41;100.00
52735;BME280;38631;47.572;10.704;2023-03-04T03:20:22;92766.03;;;-0.42;100.00
52735;BME280;38631;47.572;10.704;2023-03-04T03:22:48;92765.78;;;-0.40;100.00
52735;BME280;38631;47.572;10.704;2023-03-04T03:25:14;92786.19;;;-0.37;100.00
52735;BME280;38631;47.572;10.704;2023-03-04T03:27:40;92780.81;;;-0.59;100.00
52735;BME280;38631;47.572;10.704;2023-03-04T03:30:09;92764.97;;;-0.70;100.00
52735;BME280;38631;47.572;10.704;2023-03-04T03:32:35;92775.41;;;-0.41;100.00
52735;BME280;38631;47.572;10.704;2023-03-04T03:35:00;92771.47;;;-0.44;100.00
52735;BME280;38631;47.572;10.704;2023-03-04T03:37:26;92767.50;;;-0.46;100.00
52735;BME280;38631;47.572;10.704;2023-03-04T03:39:51;92770.44;;;-0.42;100.00
52735;BME280;38631;47.572;10.704;2023-03-04T03:42:16;92778.78;;;-0.69;100.00
52735;BME280;38631;47.572;10.704;2023-03-04T03:44:42;92772.53;;;-0.68;100.00
52735;BME280;38631;47.572;10.704;2023-03-04T03:47:07;92775.50;;;-0.76;100.00
52735;BME280;38631;47.572;10.704;2023-03-04T03:49:32;92772.41;;;-0.61;100.00
52735;BME280;38631;47.572;10.704;2023-03-04T03:51:58;92776.94;;;-0.57;100.00
52735;BME280;38631;47.572;10.704;2023-03-04T03:54:23;92773.31;;;-0.56;100.00
52735;BME280;38631;47.572;10.704;2023-03-04T03:56:49;92772.41;;;-0.50;100.00
52735;BME280;38631;47.572;10.704;2023-03-04T03:59:14;92761.63;;;-0.53;100.00
52735;BME280;38631;47.572;10.704;2023-03-04T04:01:39;92775.69;;;-0.54;100.00
52735;BME280;38631;47.572;10.704;2023-03-04T04:04:05;92767.38;;;-0.92;100.00
52735;BME280;38631;47.572;10.704;2023-03-04T04:06:30;92775.19;;;-0.80;100.00
52735;BME280;38631;47.572;10.704;2023-03-04T04:08:55;92769.25;;;-0.75;100.00
52735;BME280;38631;47.572;10.704;2023-03-04T04:11:21;92775.91;;;-0.56;100.00
52735;BME280;38631;47.572;10.704;2023-03-04T04:13:47;92776.50;;;-0.66;100.00
52735;BME280;38631;47.572;10.704;2023-03-04T04:16:12;92767.78;;;-0.71;100.00
52735;BME280;38631;47.572;10.704;2023-03-04T04:18:37;92777.78;;;-0.92;100.00
52735;BME280;38631;47.572;10.704;2023-03-04T04:21:03;92778.00;;;-0.70;100.00
52735;BME280;38631;47.572;10.704;2023-03-04T04:23:29;92765.44;;;-0.73;100.00
52735;BME280;38631;47.572;10.704;2023-03-04T04:25:55;92764.19;;;-0.94;100.00
52735;BME280;38631;47.572;10.704;2023-03-04T04:28:20;92761.94;;;-0.90;100.00
52735;BME280;38631;47.572;10.704;2023-03-04T04:30:46;92771.72;;;-0.57;100.00
52735;BME280;38631;47.572;10.704;2023-03-04T04:33:11;92763.34;;;-0.71;100.00
52735;BME280;38631;47.572;10.704;2023-03-04T04:35:37;92771.72;;;-0.57;100.00
52735;BME280;38631;47.572;10.704;2023-03-04T04:38:03;92771.59;;;-0.50;100.00
52735;BME280;38631;47.572;10.704;2023-03-04T04:40:29;92776.00;;;-0.39;100.00
52735;BME280;38631;47.572;10.704;2023-03-04T04:42:54;92770.09;;;-0.46;100.00
52735;BME280;38631;47.572;10.704;2023-03-04T04:45:19;92761.63;;;-0.53;100.00
52735;BME280;38631;47.572;10.704;2023-03-04T04:47:45;92769.84;;;-0.33;100.00
52735;BME280;38631;47.572;10.704;2023-03-04T04:50:11;92767.69;;;-0.36;100.00
52735;BME280;38631;47.572;10.704;2023-03-04T04:52:36;92759.97;;;-0.31;100.00
52735;BME280;38631;47.572;10.704;2023-03-04T04:55:02;92761.59;;;-0.41;100.00
52735;BME280;38631;47.572;10.704;2023-03-04T04:57:28;92769.72;;;-0.26;100.00
52735;BME280;38631;47.572;10.704;2023-03-04T04:59:53;92770.19;;;-0.29;100.00
52735;BME280;38631;47.572;10.704;2023-03-04T05:02:19;92769.03;;;-0.33;100.00
52735;BME280;38631;47.572;10.704;2023-03-04T05:04:44;92757.72;;;-0.39;100.00
52735;BME280;38631;47.572;10.704;2023-03-04T05:07:09;92752.91;;;-0.30;100.00
52735;BME280;38631;47.572;10.704;2023-03-04T05:09:35;92751.81;;;-0.34;100.00
52735;BME280;38631;47.572;10.704;2023-03-04T05:12:00;92752.72;;;-0.40;100.00
52735;BME280;38631;47.572;10.704;2023-03-04T05:14:26;92761.72;;;-0.48;100.00
52735;BME280;38631;47.572;10.704;2023-03-04T05:16:51;92754.25;;;-0.56;100.00
52735;BME280;38631;47.572;10.704;2023-03-04T05:19:17;92749.50;;;-0.48;100.00
52735;BME280;38631;47.572;10.704;2023-03-04T05:21:43;92758.22;;;-0.54;100.00
52735;BME280;38631;47.572;10.704;2023-03-04T05:24:08;92760.59;;;-0.52;100.00
52735;BME280;38631;47.572;10.704;2023-03-04T05:26:33;92763.34;;;-0.71;100.00
52735;BME280;38631;47.572;10.704;2023-03-04T05:28:59;92758.88;;;-0.87;100.00
52735;BME280;38631;47.572;10.704;2023-03-04T05:31:24;92756.72;;;-0.90;100.00
52735;BME280;38631;47.572;10.704;2023-03-04T05:33:50;92758.19;;;-0.82;100.00
52735;BME280;38631;47.572;10.704;2023-03-04T05:36:15;92759.19;;;-0.83;100.00
52735;BME280;38631;47.572;10.704;2023-03-04T05:38:40;92761.13;;;-0.91;100.00
52735;BME280;38631;47.572;10.704;2023-03-04T05:41:06;92765.44;;;-0.96;100.00
52735;BME280;38631;47.572;10.704;2023-03-04T05:43:32;92761.25;;;-0.97;100.00
52735;BME280;38631;47.572;10.704;2023-03-04T05:45:59;92768.97;;;-1.14;100.00
52735;BME280;38631;47.572;10.704;2023-03-04T05:48:25;92752.09;;;-1.12;100.00
52735;BME280;38631;47.572;10.704;2023-03-04T05:50:54;92763.75;;;-1.02;100.00
52735;BME280;38631;47.572;10.704;2023-03-04T05:53:20;92761.13;;;-0.91;100.00
52735;BME280;38631;47.572;10.704;2023-03-04T05:55:46;92769.84;;;-0.85;100.00
52735;BME280;38631;47.572;10.704;2023-03-04T05:58:12;92770.19;;;-0.93;100.00
52735;BME280;38631;47.572;10.704;2023-03-04T06:00:37;92768.72;;;-0.89;100.00
52735;BME280;38631;47.572;10.704;2023-03-04T06:03:03;92770.97;;;-0.81;100.00
52735;BME280;38631;47.572;10.704;2023-03-04T06:05:28;92766.91;;;-0.89;100.00
52735;BME280;38631;47.572;10.704;2023-03-04T06:07:53;92778.31;;;-0.78;100.00
52735;BME280;38631;47.572;10.704;2023-03-04T06:10:19;92772.00;;;-0.94;100.00
52735;BME280;38631;47.572;10.704;2023-03-04T06:12:44;92782.44;;;-0.94;100.00
52735;BME280;38631;47.572;10.704;2023-03-04T06:15:10;92793.22;;;-0.90;100.00
52735;BME280;38631;47.572;10.704;2023-03-04T06:17:37;92796.81;;;-1.03;100.00
52735;BME280;38631;47.572;10.704;2023-03-04T06:20:03;92794.91;;;-1.19;100.00
52735;BME280;38631;47.572;10.704;2023-03-04T06:22:30;92799.66;;;-1.04;100.00
52735;BME280;38631;47.572;10.704;2023-03-04T06:24:56;92796.03;;;-1.03;100.00
52735;BME280;38631;47.572;10.704;2023-03-04T06:27:21;92808.72;;;-1.07;100.00
52735;BME280;38631;47.572;10.704;2023-03-04T06:29:47;92811.47;;;-0.90;100.00
52735;BME280;38631;47.572;10.704;2023-03-04T06:32:12;92818.34;;;-1.19;100.00
52735;BME280;38631;47.572;10.704;2023-03-04T06:34:37;92823.78;;;-1.09;100.00
52735;BME280;38631;47.572;10.704;2023-03-04T06:37:03;92828.69;;;-1.13;100.00
52735;BME280;38631;47.572;10.704;2023-03-04T06:39:28;92829.00;;;-1.21;100.00
52735;BME280;38631;47.572;10.704;2023-03-04T06:41:53;92831.50;;;-1.02;100.00
52735;BME280;38631;47.572;10.704;2023-03-04T06:44:19;92829.69;;;-1.14;100.00
52735;BME280;38631;47.572;10.704;2023-03-04T06:46:44;92838.75;;;-1.04;100.00
52735;BME280;38631;47.572;10.704;2023-03-04T06:49:10;92838.28;;;-1.01;100.00
52735;BME280;38631;47.572;10.704;2023-03-04T06:51:35;92845.16;;;-1.42;100.00
52735;BME280;38631;47.572;10.704;2023-03-04T06:54:00;92828.63;;;-1.36;100.00
52735;BME280;38631;47.572;10.704;2023-03-04T06:56:26;92833.25;;;-1.38;100.00
52735;BME280;38631;47.572;10.704;2023-03-04T06:58:51;92842.47;;;-1.24;100.00
52735;BME280;38631;47.572;10.704;2023-03-04T07:01:22;92840.47;;;-1.10;100.00
52735;BME280;38631;47.572;10.704;2023-03-04T07:03:49;92828.56;;;-1.18;100.00
52735;BME280;38631;47.572;10.704;2023-03-04T07:06:17;92833.75;;;-1.29;100.00
52735;BME280;38631;47.572;10.704;2023-03-04T07:08:43;92835.34;;;-1.17;100.00
52735;BME280;38631;47.572;10.704;2023-03-04T07:11:09;92824.72;;;-1.15;100.00
52735;BME280;38631;47.572;10.704;2023-03-04T07:13:35;92833.53;;;-0.81;100.00
52735;BME280;38631;47.572;10.704;2023-03-04T07:16:04;92830.59;;;-0.73;100.00
52735;BME280;38631;47.572;10.704;2023-03-04T07:18:29;92835.09;;;-0.68;100.00
52735;BME280;38631;47.572;10.704;2023-03-04T07:20:54;92834.69;;;-0.77;100.00
52735;BME280;38631;47.572;10.704;2023-03-04T07:23:20;92831.13;;;-0.59;100.00
52735;BME280;38631;47.572;10.704;2023-03-04T07:25:45;92828.22;;;-0.74;100.00
52735;BME280;38631;47.572;10.704;2023-03-04T07:28:11;92826.38;;;-0.62;100.00
52735;BME280;38631;47.572;10.704;2023-03-04T07:30:36;92831.13;;;-0.47;100.00
52735;BME280;38631;47.572;10.704;2023-03-04T07:33:01;92835.16;;;-0.28;100.00
52735;BME280;38631;47.572;10.704;2023-03-04T07:35:27;92835.28;;;-0.23;100.00
52735;BME280;38631;47.572;10.704;2023-03-04T07:37:52;92831.63;;;-0.22;100.00
52735;BME280;38631;47.572;10.704;2023-03-04T07:40:17;92830.56;;;-0.09;100.00
52735;BME280;38631;47.572;10.704;2023-03-04T07:42:47;92828.75;;;-0.08;100.00
52735;BME280;38631;47.572;10.704;2023-03-04T07:45:13;92830.06;;;-0.23;100.00
52735;BME280;38631;47.572;10.704;2023-03-04T07:47:38;92832.50;;;-0.04;100.00
52735;BME280;38631;47.572;10.704;2023-03-04T07:50:05;92835.28;;;-0.23;100.00
52735;BME280;38631;47.572;10.704;2023-03-04T07:52:31;92823.88;;;-0.45;100.00
52735;BME280;38631;47.572;10.704;2023-03-04T07:54:56;92835.75;;;-0.37;100.00
52735;BME280;38631;47.572;10.704;2023-03-04T07:57:22;92833.47;;;-0.34;100.00
52735;BME280;38631;47.572;10.704;2023-03-04T07:59:47;92834.63;;;-0.30;100.00
52735;BME280;38631;47.572;10.704;2023-03-04T08:02:12;92827.50;;;-0.46;100.00
52735;BME280;38631;47.572;10.704;2023-03-04T08:04:39;92835.06;;;-0.33;100.00
52735;BME280;38631;47.572;10.704;2023-03-04T08:07:04;92841.63;;;-0.30;100.00
52735;BME280;38631;47.572;10.704;2023-03-04T08:09:30;92844.69;;;-0.22;100.00
52735;BME280;38631;47.572;10.704;2023-03-04T08:11:55;92846.16;;;-0.26;100.00
52735;BME280;38631;47.572;10.704;2023-03-04T08:14:20;92853.00;;;-0.48;100.00
52735;BME280;38631;47.572;10.704;2023-03-04T08:16:46;92841.56;;;-0.47;100.00
52735;BME280;38631;47.572;10.704;2023-03-04T08:19:11;92840.06;;;-0.31;100.00
52735;BME280;38631;47.572;10.704;2023-03-04T08:21:37;92847.97;;;-0.14;100.00
52735;BME280;38631;47.572;10.704;2023-03-04T08:24:02;92847.59;;;-0.06;100.00
52735;BME280;38631;47.572;10.704;2023-03-04T08:26:35;92846.91;;;-0.13;100.00
52735;BME280;38631;47.572;10.704;2023-03-04T08:29:04;92846.56;;;-0.05;100.00
52735;BME280;38631;47.572;10.704;2023-03-04T08:31:30;92850.09;;;-0.11;100.00
52735;BME280;38631;47.572;10.704;2023-03-04T08:33:55;92851.91;;;-0.12;100.00
52735;BME280;38631;47.572;10.704;2023-03-04T08:36:21;92853.97;;;-0.26;100.00
52735;BME280;38631;47.572;10.704;2023-03-04T08:38:46;92851.63;;;-0.27;100.00
52735;BME280;38631;47.572;10.704;2023-03-04T08:41:12;92848.84;;;-0.09;100.00
52735;BME280;38631;47.572;10.704;2023-03-04T08:43:38;92850.66;;;-0.09;100.00
52735;BME280;38631;47.572;10.704;2023-03-04T08:46:04;92851.22;;;-0.07;100.00
52735;BME280;38631;47.572;10.704;2023-03-04T08:48:29;92853.38;;;-0.04;100.00
52735;BME280;38631;47.572;10.704;2023-03-04T08:50:55;92852.91;;;-0.01;100.00
52735;BME280;38631;47.572;10.704;2023-03-04T08:53:20;92849.91;;;0.07;100.00
52735;BME280;38631;47.572;10.704;2023-03-04T08:55:46;92844.84;;;0.01;100.00
52735;BME280;38631;47.572;10.704;2023-03-04T08:58:12;92847.78;;;0.04;100.00
52735;BME280;38631;47.572;10.704;2023-03-04T09:00:41;92833.69;;;-0.24;100.00
52735;BME280;38631;47.572;10.704;2023-03-04T09:03:10;92837.41;;;-0.19;100.00
52735;BME280;38631;47.572;10.704;2023-03-04T09:05:36;92842.38;;;-0.18;100.00
52735;BME280;38631;47.572;10.704;2023-03-04T09:08:01;92835.50;;;0.05;100.00
52735;BME280;38631;47.572;10.704;2023-03-04T09:10:26;92838.97;;;0.22;100.00
52735;BME280;38631;47.572;10.704;2023-03-04T09:12:52;92838.44;;;0.37;100.00
52735;BME280;38631;47.572;10.704;2023-03-04T09:15:18;92835.31;;;0.52;100.00
52735;BME280;38631;47.572;10.704;2023-03-04T09:17:43;92837.63;;;0.48;100.00
52735;BME280;38631;47.572;10.704;2023-03-04T09:20:10;92838.53;;;0.42;100.00
52735;BME280;38631;47.572;10.704;2023-03-04T09:22:37;92839.00;;;0.39;100.00
52735;BME280;38631;47.572;10.704;2023-03-04T09:25:02;92833.50;;;0.52;100.00
52735;BME280;38631;47.572;10.704;2023-03-04T09:27:28;92833.19;;;0.49;100.00
52735;BME280;38631;47.572;10.704;2023-03-04T09:29:53;92830.78;;;0.30;100.00
52735;BME280;38631;47.572;10.704;2023-03-04T09:32:19;92827.88;;;0.43;100.00
52735;BME280;38631;47.572;10.704;2023-03-04T09:34:44;92831.03;;;0.46;100.00
52735;BME280;38631;47.572;10.704;2023-03-04T09:37:09;92834.56;;;0.39;100.00
52735;BME280;38631;47.572;10.704;2023-03-04T09:39:35;92829.59;;;0.38;100.00
52735;BME280;38631;47.572;10.704;2023-03-04T09:42:01;92821.53;;;0.56;100.00
52735;BME280;38631;47.572;10.704;2023-03-04T09:44:40;92834.38;;;0.75;100.00
52735;BME280;38631;47.572;10.704;2023-03-04T09:47:11;92830.06;;;0.80;100.00
52735;BME280;38631;47.572;10.704;2023-03-04T09:49:39;92836.13;;;0.86;100.00
52735;BME280;38631;47.572;10.704;2023-03-04T09:52:20;92829.38;;;0.90;100.00
52735;BME280;38631;47.572;10.704;2023-03-04T10:00:23;92824.16;;;1.24;100.00
52735;BME280;38631;47.572;10.704;2023-03-04T10:03:03;92824.00;;;1.31;100.00
52735;BME280;38631;47.572;10.704;2023-03-04T10:05:31;92826.50;;;1.42;100.00
52735;BME280;38631;47.572;10.704;2023-03-04T10:08:05;92818.16;;;1.45;100.00
52735;BME280;38631;47.572;10.704;2023-03-04T10:10:36;92818.72;;;1.47;100.00
52735;BME280;38631;47.572;10.704;2023-03-04T10:13:03;92810.97;;;1.36;100.00
52735;BME280;38631;47.572;10.704;2023-03-04T10:15:32;92814.94;;;1.38;100.00
52735;BME280;38631;47.572;10.704;2023-03-04T10:18:10;92806.59;;;1.41;100.00
52735;BME280;38631;47.572;10.704;2023-03-04T10:21:07;92812.06;;;1.40;100.00
52735;BME280;38631;47.572;10.704;2023-03-04T10:23:38;92814.38;;;1.36;100.00
52735;BME280;38631;47.572;10.704;2023-03-04T10:26:14;92818.22;;;1.28;100.00
52735;BME280;38631;47.572;10.704;2023-03-04T10:28:40;92815.16;;;1.37;100.00
52735;BME280;38631;47.572;10.704;2023-03-04T10:31:31;92815.19;;;1.20;100.00
52735;BME280;38631;47.572;10.704;2023-03-04T10:33:59;92817.81;;;1.20;100.00
52735;BME280;38631;47.572;10.704;2023-03-04T10:41:27;92812.25;;;1.33;100.00
52735;BME280;38631;47.572;10.704;2023-03-04T10:44:04;92806.97;;;1.28;100.00
52735;BME280;38631;47.572;10.704;2023-03-04T10:46:44;92817.28;;;1.40;100.00
52735;BME280;38631;47.572;10.704;2023-03-04T10:49:12;92808.66;;;1.39;100.00
52735;BME280;38631;47.572;10.704;2023-03-04T10:51:50;92815.06;;;1.48;100.00
52735;BME280;38631;47.572;10.704;2023-03-04T10:57:04;92804.66;;;1.54;100.00
52735;BME280;38631;47.572;10.704;2023-03-04T10:59:57;92803.41;;;1.56;100.00
52735;BME280;38631;47.572;10.704;2023-03-04T11:07:28;92800.91;;;1.66;100.00
52735;BME280;38631;47.572;10.704;2023-03-04T11:09:54;92796.94;;;1.64;100.00
52735;BME280;38631;47.572;10.704;2023-03-04T11:12:21;92799.06;;;1.67;100.00
52735;BME280;38631;47.572;10.704;2023-03-04T11:14:55;92794.13;;;1.70;100.00
52735;BME280;38631;47.572;10.704;2023-03-04T11:17:39;92794.13;;;1.70;100.00
52735;BME280;38631;47.572;10.704;2023-03-04T11:20:35;92793.47;;;1.80;100.00
52735;BME280;38631;47.572;10.704;2023-03-04T11:23:31;92784.66;;;1.86;100.00
52735;BME280;38631;47.572;10.704;2023-03-04T11:26:11;92780.84;;;1.99;100.00
52735;BME280;38631;47.572;10.704;2023-03-04T11:31:16;92770.31;;;1.94;100.00
52735;BME280;38631;47.572;10.704;2023-03-04T11:33:50;92774.78;;;1.93;100.00
52735;BME280;38631;47.572;10.704;2023-03-04T11:39:17;92783.34;;;2.11;100.00
52735;BME280;38631;47.572;10.704;2023-03-04T11:41:51;92781.25;;;2.13;100.00
52735;BME280;38631;47.572;10.704;2023-03-04T11:44:19;92773.84;;;2.05;100.00
52735;BME280;38631;47.572;10.704;2023-03-04T11:47:10;92782.47;;;2.05;100.00
52735;BME280;38631;47.572;10.704;2023-03-04T11:49:55;92774.09;;;2.03;100.00
52735;BME280;38631;47.572;10.704;2023-03-04T11:52:58;92776.59;;;2.20;100.00
52735;BME280;38631;47.572;10.704;2023-03-04T11:55:32;92771.31;;;2.15;100.00
52735;BME280;38631;47.572;10.704;2023-03-04T11:58:08;92771.63;;;2.19;100.00
52735;BME280;38631;47.572;10.704;2023-03-04T12:01:08;92769.53;;;2.21;100.00
52735;BME280;38631;47.572;10.704;2023-03-04T12:04:03;92768.16;;;2.40;100.00
52735;BME280;38631;47.572;10.704;2023-03-04T12:09:20;92768.91;;;2.68;100.00
52735;BME280;38631;47.572;10.704;2023-03-04T12:14:50;92764.56;;;2.78;100.00
52735;BME280;38631;47.572;10.704;2023-03-04T12:17:32;92770.97;;;2.66;98.78
52735;BME280;38631;47.572;10.704;2023-03-04T12:23:37;92751.56;;;2.62;100.00
52735;BME280;38631;47.572;10.704;2023-03-04T12:29:31;92747.66;;;2.64;100.00
52735;BME280;38631;47.572;10.704;2023-03-04T12:32:14;92745.34;;;2.73;100.00
52735;BME280;38631;47.572;10.704;2023-03-04T12:37:36;92744.03;;;2.70;97.75
52735;BME280;38631;47.572;10.704;2023-03-04T12:43:03;92735.19;;;2.81;100.00
52735;BME280;38631;47.572;10.704;2023-03-04T12:46:14;92738.25;;;2.73;99.89
52735;BME280;38631;47.572;10.704;2023-03-04T12:48:43;92732.78;;;2.75;100.00
52735;BME280;38631;47.572;10.704;2023-03-04T12:51:33;92729.66;;;2.78;100.00
52735;BME280;38631;47.572;10.704;2023-03-04T12:56:55;92724.88;;;2.70;100.00
52735;BME280;38631;47.572;10.704;2023-03-04T12:59:24;92722.50;;;2.68;100.00
52735;BME280;38631;47.572;10.704;2023-03-04T13:02:12;92735.13;;;2.71;100.00
52735;BME280;38631;47.572;10.704;2023-03-04T13:08:17;92728.22;;;2.60;100.00
52735;BME280;38631;47.572;10.704;2023-03-04T13:10:45;92725.03;;;2.58;100.00
52735;BME280;38631;47.572;10.704;2023-03-04T13:13:37;92726.97;;;2.68;100.00
52735;BME280;38631;47.572;10.704;2023-03-04T13:19:41;92714.19;;;2.76;100.00
52735;BME280;38631;47.572;10.704;2023-03-04T13:24:50;92711.56;;;2.76;100.00
52735;BME280;38631;47.572;10.704;2023-03-04T13:27:44;92708.94;;;2.76;100.00
52735;BME280;38631;47.572;10.704;2023-03-04T13:32:57;92704.47;;;2.77;100.00
52735;BME280;38631;47.572;10.704;2023-03-04T13:43:36;92690.03;;;2.69;100.00
52735;BME280;38631;47.572;10.704;2023-03-04T13:49:03;92686.88;;;2.72;99.91
52735;BME280;38631;47.572;10.704;2023-03-04T13:51:39;92679.56;;;2.74;99.27
52735;BME280;38631;47.572;10.704;2023-03-04T13:57:10;92679.88;;;2.88;100.00
52735;BME280;38631;47.572;10.704;2023-03-04T13:59:54;92683.28;;;2.84;100.00
52735;BME280;38631;47.572;10.704;2023-03-04T14:02:22;92678.59;;;2.91;99.73
52735;BME280;38631;47.572;10.704;2023-03-04T14:12:19;92668.72;;;3.08;100.00